Time;durP1;ratioP1;P1;durP2;ratioP2;P2;SDS_P1;SDS_P2;PMS_P1;PMS_P2;Temp;Humidity;BMP_temperature;BMP_pressure;BME280_temperature;BME280_humidity;BME280_pressure;Samples;Min_cycle;Max_cycle;Signal;HPM_P1;HPM_P2
2023/03/03 00:09:26;;;;;;;;;;;3.30;1.00;;;;;;6119764;23;19921;-83
2023/03/03 00:11:54;;;;;;;;;;;3.20;1.00;;;;;;6123652;23;19909;-83
2023/03/03 00:14:27;;;;;;;;;;;3.20;1.00;;;;;;6122937;23;19905;-82
2023/03/03 00:16:53;;;;;;;;;;;3.20;1.00;;;;;;6121468;23;19912;-82
2023/03/03 00:19:19;;;;;;;;;;;3.20;1.00;;;;;;6121520;23;19994;-82
2023/03/03 00:21:45;;;;;;;;;;;3.10;1.00;;;;;;6223172;23;19905;-82
2023/03/03 00:24:21;;;;;;;;;;;3.10;1.00;;;;;;6224723;23;19905;-82
2023/03/03 00:26:48;;;;;;;;;;;3.10;1.00;;;;;;6124374;23;20246;-82
2023/03/03 00:29:26;;;;;;;;;;;3.10;1.00;;;;;;6225862;23;19915;-82
2023/03/03 00:31:51;;;;;;;;;;;3.00;1.00;;;;;;6124109;23;19992;-82
2023/03/03 00:34:17;;;;;;;;;;;3.00;1.00;;;;;;6225354;23;19912;-82
2023/03/03 00:36:43;;;;;;;;;;;3.00;1.00;;;;;;6124442;23;19905;-82
2023/03/03 00:39:17;;;;;;;;;;;2.90;1.00;;;;;;6225206;23;20242;-82
2023/03/03 00:41:43;;;;;;;;;;;2.90;1.00;;;;;;6123401;23;19909;-82
2023/03/03 00:44:27;;;;;;;;;;;2.80;1.00;;;;;;6124114;23;19913;-82
2023/03/03 00:46:55;;;;;;;;;;;2.80;1.00;;;;;;6225190;23;19909;-82
2023/03/03 00:49:23;;;;;;;;;;;2.70;1.00;;;;;;6123235;23;19911;-82
2023/03/03 00:51:49;;;;;;;;;;;2.70;1.00;;;;;;6123075;23;19905;-82
2023/03/03 00:54:14;;;;;;;;;;;2.60;1.00;;;;;;6224441;23;19905;-82
2023/03/03 00:56:40;;;;;;;;;;;2.60;1.00;;;;;;6123528;23;19905;-82
2023/03/03 00:59:06;;;;;;;;;;;2.50;1.00;;;;;;6123839;23;19909;-80
2023/03/03 01:01:31;;;;;;;;;;;2.50;1.00;;;;;;6225237;23;19912;-80
2023/03/03 01:03:57;;;;;;;;;;;2.50;1.00;;;;;;6123673;23;20380;-80
2023/03/03 01:06:23;;;;;;;;;;;2.50;1.00;;;;;;6225547;23;19909;-80
2023/03/03 01:08:48;;;;;;;;;;;2.40;1.00;;;;;;6224926;23;19913;-80
2023/03/03 01:11:24;;;;;;;;;;;2.40;1.00;;;;;;6122333;23;19905;-79
2023/03/03 01:13:51;;;;;;;;;;;2.40;1.00;;;;;;6123241;23;19916;-80
2023/03/03 01:16:16;;;;;;;;;;;2.30;1.00;;;;;;6126659;23;19912;-80
2023/03/03 01:18:42;;;;;;;;;;;2.30;1.00;;;;;;6128940;23;19905;-80
2023/03/03 01:21:09;;;;;;;;;;;2.20;1.00;;;;;;6121306;23;19905;-80
2023/03/03 01:23:34;;;;;;;;;;;2.20;1.00;;;;;;6122431;23;20027;-80
2023/03/03 01:26:00;;;;;;;;;;;2.20;1.00;;;;;;6249841;22;19909;-80
2023/03/03 01:28:25;;;;;;;;;;;2.20;1.00;;;;;;6122003;23;19905;-80
2023/03/03 01:30:51;;;;;;;;;;;2.10;1.00;;;;;;6121330;23;20213;-80
2023/03/03 01:33:16;;;;;;;;;;;2.10;1.00;;;;;;6121134;23;19909;-79
2023/03/03 01:35:43;;;;;;;;;;;2.10;1.00;;;;;;6121796;23;19959;-79
2023/03/03 01:38:08;;;;;;;;;;;2.10;1.00;;;;;;6121459;23;19905;-80
2023/03/03 01:40:34;;;;;;;;;;;2.00;1.00;;;;;;6124495;23;19912;-80
2023/03/03 01:42:59;;;;;;;;;;;2.00;1.00;;;;;;6124183;23;19936;-80
2023/03/03 01:45:27;;;;;;;;;;;2.00;1.00;;;;;;6124818;23;19905;-80
2023/03/03 01:47:59;;;;;;;;;;;2.00;1.00;;;;;;6124510;23;19909;-79
2023/03/03 01:50:31;;;;;;;;;;;2.00;1.00;;;;;;6124637;23;19905;-80
2023/03/03 01:52:58;;;;;;;;;;;2.00;1.00;;;;;;6225026;23;19909;-80
2023/03/03 01:55:34;;;;;;;;;;;2.00;1.00;;;;;;6225215;23;20398;-80
2023/03/03 01:58:21;;;;;;;;;;;1.90;1.00;;;;;;6123476;23;19951;-79
2023/03/03 02:00:54;;;;;;;;;;;1.90;1.00;;;;;;6123488;23;19988;-80
2023/03/03 02:03:20;;;;;;;;;;;1.90;1.00;;;;;;6124177;23;19911;-79
2023/03/03 02:05:45;;;;;;;;;;;1.90;1.00;;;;;;6225510;23;19905;-80
2023/03/03 02:08:15;;;;;;;;;;;2.00;1.00;;;;;;6225178;23;19905;-80
2023/03/03 02:10:40;;;;;;;;;;;2.00;1.00;;;;;;6122687;23;19913;-80
2023/03/03 02:13:06;;;;;;;;;;;2.20;1.00;;;;;;6122504;23;20342;-80
2023/03/03 02:15:35;;;;;;;;;;;2.20;1.00;;;;;;6122966;23;19905;-79
2023/03/03 02:18:03;;;;;;;;;;;2.30;1.00;;;;;;6224453;23;19912;-80
2023/03/03 02:20:36;;;;;;;;;;;2.40;1.00;;;;;;6122740;23;19987;-80
2023/03/03 02:23:08;;;;;;;;;;;2.50;1.00;;;;;;6123439;23;19905;-80
2023/03/03 02:25:38;;;;;;;;;;;2.60;1.00;;;;;;6123914;23;19916;-80
2023/03/03 02:28:03;;;;;;;;;;;2.80;1.00;;;;;;6123900;23;19931;-80
2023/03/03 02:30:29;;;;;;;;;;;2.90;1.00;;;;;;6123685;23;20326;-79
2023/03/03 02:32:54;;;;;;;;;;;3.00;1.00;;;;;;6123206;23;20330;-80
2023/03/03 02:35:24;;;;;;;;;;;3.10;1.00;;;;;;6123973;23;19909;-80
2023/03/03 02:37:50;;;;;;;;;;;3.20;1.00;;;;;;6123612;23;19940;-79
2023/03/03 02:40:17;;;;;;;;;;;3.30;1.00;;;;;;6224839;23;19905;-80
2023/03/03 02:42:44;;;;;;;;;;;3.30;1.00;;;;;;6121865;23;19909;-80
2023/03/03 02:45:09;;;;;;;;;;;3.40;1.00;;;;;;6122632;23;19909;-80
2023/03/03 02:47:35;;;;;;;;;;;3.50;1.00;;;;;;6125336;23;20274;-80
2023/03/03 02:50:00;;;;;;;;;;;3.50;1.00;;;;;;6232930;23;19905;-80
2023/03/03 02:52:26;;;;;;;;;;;3.60;1.00;;;;;;6128478;23;19916;-80
2023/03/03 02:54:51;;;;;;;;;;;3.60;1.00;;;;;;6229561;23;19912;-80
2023/03/03 02:57:17;;;;;;;;;;;3.60;1.00;;;;;;6128298;23;19905;-80
2023/03/03 02:59:42;;;;;;;;;;;3.60;1.00;;;;;;6127504;23;19940;-80
2023/03/03 03:02:08;;;;;;;;;;;3.70;1.00;;;;;;6127099;23;19912;-81
2023/03/03 03:04:33;;;;;;;;;;;3.70;1.00;;;;;;6127789;23;19912;-80
2023/03/03 03:06:59;;;;;;;;;;;3.80;1.00;;;;;;6126755;23;19905;-81
2023/03/03 03:09:25;;;;;;;;;;;3.80;1.00;;;;;;6228750;23;19953;-81
2023/03/03 03:11:51;;;;;;;;;;;3.80;1.00;;;;;;6126614;23;19905;-81
2023/03/03 03:14:16;;;;;;;;;;;3.80;1.00;;;;;;6125732;23;20323;-81
2023/03/03 03:16:42;;;;;;;;;;;3.80;1.00;;;;;;6228674;23;19912;-81
2023/03/03 03:19:07;;;;;;;;;;;3.80;1.00;;;;;;6126617;23;19905;-80
2023/03/03 03:21:33;;;;;;;;;;;3.80;1.00;;;;;;6125110;23;19909;-81
2023/03/03 03:23:59;;;;;;;;;;;3.80;1.00;;;;;;6126348;23;19916;-80
2023/03/03 03:26:24;;;;;;;;;;;3.80;1.00;;;;;;6126102;23;19999;-80
2023/03/03 03:28:50;;;;;;;;;;;3.80;1.00;;;;;;6227047;23;19905;-81
2023/03/03 03:31:16;;;;;;;;;;;3.80;1.00;;;;;;6125054;23;19940;-81
2023/03/03 03:33:42;;;;;;;;;;;3.90;1.00;;;;;;6125140;23;20301;-81
2023/03/03 03:36:08;;;;;;;;;;;3.80;1.00;;;;;;6125103;23;19940;-81
2023/03/03 03:38:35;;;;;;;;;;;3.90;1.00;;;;;;6125316;23;20227;-81
2023/03/03 03:41:01;;;;;;;;;;;3.90;1.00;;;;;;6226305;23;19988;-81
2023/03/03 03:43:26;;;;;;;;;;;3.90;1.00;;;;;;6124243;23;19906;-79
2023/03/03 03:45:52;;;;;;;;;;;3.90;1.00;;;;;;6226276;23;19976;-81
2023/03/03 03:48:18;;;;;;;;;;;3.90;1.00;;;;;;6124414;23;19905;-80
2023/03/03 03:50:46;;;;;;;;;;;3.90;1.00;;;;;;6226706;23;19928;-79
2023/03/03 03:53:11;;;;;;;;;;;3.90;1.00;;;;;;6224658;23;19916;-80
2023/03/03 03:55:36;;;;;;;;;;;3.90;1.00;;;;;;6123851;23;19905;-81
2023/03/03 03:58:02;;;;;;;;;;;4.00;1.00;;;;;;6250566;22;19909;-80
2023/03/03 04:00:27;;;;;;;;;;;3.90;1.00;;;;;;6123382;23;19909;-80
2023/03/03 04:02:53;;;;;;;;;;;3.90;1.00;;;;;;6250579;22;19909;-81
2023/03/03 04:05:18;;;;;;;;;;;3.90;1.00;;;;;;6124722;23;19905;-81
2023/03/03 04:07:44;;;;;;;;;;;3.90;1.00;;;;;;6225010;23;19906;-80
2023/03/03 04:10:10;;;;;;;;;;;3.90;1.00;;;;;;6122674;23;19935;-80
2023/03/03 04:12:38;;;;;;;;;;;3.90;1.00;;;;;;6123467;23;19955;-80
2023/03/03 04:15:07;;;;;;;;;;;3.90;1.00;;;;;;6131009;23;19991;-80
2023/03/03 04:17:33;;;;;;;;;;;3.90;1.00;;;;;;6132788;23;20389;-81
2023/03/03 04:19:58;;;;;;;;;;;3.90;1.00;;;;;;6126725;23;19905;-81
2023/03/03 04:22:25;;;;;;;;;;;3.90;1.00;;;;;;6126650;23;19911;-80
2023/03/03 04:24:50;;;;;;;;;;;3.90;1.00;;;;;;6126421;23;19905;-81
2023/03/03 04:27:16;;;;;;;;;;;3.90;1.00;;;;;;6127011;23;19912;-80
2023/03/03 04:29:41;;;;;;;;;;;3.90;1.00;;;;;;6125839;23;19912;-80
2023/03/03 04:32:07;;;;;;;;;;;3.90;1.00;;;;;;6125891;23;20365;-81
2023/03/03 04:34:33;;;;;;;;;;;3.80;1.00;;;;;;6126121;23;19915;-81
2023/03/03 04:36:58;;;;;;;;;;;3.90;1.00;;;;;;6126597;23;19906;-81
2023/03/03 04:39:23;;;;;;;;;;;3.90;1.00;;;;;;6227830;23;19905;-80
2023/03/03 04:41:49;;;;;;;;;;;3.90;1.00;;;;;;6252116;22;19976;-80
2023/03/03 04:44:14;;;;;;;;;;;3.90;1.00;;;;;;6125636;23;19920;-81
2023/03/03 04:46:40;;;;;;;;;;;3.90;1.00;;;;;;6124024;23;19916;-80
2023/03/03 04:49:07;;;;;;;;;;;3.90;1.00;;;;;;6124728;23;19905;-80
2023/03/03 04:51:33;;;;;;;;;;;3.90;1.00;;;;;;6125823;23;20259;-81
2023/03/03 04:53:58;;;;;;;;;;;3.90;1.00;;;;;;6225451;23;19932;-80
2023/03/03 04:56:24;;;;;;;;;;;3.90;1.00;;;;;;6124415;23;19912;-81
2023/03/03 04:58:49;;;;;;;;;;;3.90;1.00;;;;;;6226597;23;19905;-81
2023/03/03 05:01:15;;;;;;;;;;;3.80;1.00;;;;;;6225674;23;19905;-80
2023/03/03 05:03:40;;;;;;;;;;;3.80;1.00;;;;;;6123637;23;19909;-80
2023/03/03 05:06:06;;;;;;;;;;;3.90;1.00;;;;;;6223324;23;20403;-80
2023/03/03 05:08:31;;;;;;;;;;;3.90;1.00;;;;;;6121472;23;19912;-80
2023/03/03 05:10:58;;;;;;;;;;;3.90;1.00;;;;;;6121665;23;19915;-80
2023/03/03 05:13:25;;;;;;;;;;;3.90;1.00;;;;;;6224209;23;19994;-80
2023/03/03 05:15:54;;;;;;;;;;;3.90;1.00;;;;;;6224429;23;19912;-80
2023/03/03 05:18:19;;;;;;;;;;;3.90;1.00;;;;;;6123096;23;20305;-80
2023/03/03 05:20:45;;;;;;;;;;;3.90;1.00;;;;;;6123758;23;19905;-80
2023/03/03 05:23:10;;;;;;;;;;;3.90;1.00;;;;;;6123742;23;20400;-80
2023/03/03 05:25:36;;;;;;;;;;;3.80;1.00;;;;;;6122825;23;19980;-80
2023/03/03 05:28:03;;;;;;;;;;;3.80;1.00;;;;;;6123130;23;19905;-81
2023/03/03 05:30:28;;;;;;;;;;;3.80;1.00;;;;;;6122567;23;20272;-80
2023/03/03 05:32:54;;;;;;;;;;;3.80;1.00;;;;;;6122322;23;19909;-80
2023/03/03 05:35:19;;;;;;;;;;;3.80;1.00;;;;;;6122545;23;19987;-80
2023/03/03 05:37:46;;;;;;;;;;;3.80;1.00;;;;;;6224158;23;19905;-80
2023/03/03 05:40:15;;;;;;;;;;;3.80;1.00;;;;;;6124093;23;19930;-80
2023/03/03 05:42:40;;;;;;;;;;;3.80;1.00;;;;;;6131300;23;19968;-80
2023/03/03 05:45:06;;;;;;;;;;;3.80;99.90;;;;;;6128450;23;19905;-80
2023/03/03 05:47:32;;;;;;;;;;;3.80;1.00;;;;;;6127797;23;19909;-81
2023/03/03 05:49:57;;;;;;;;;;;3.80;1.00;;;;;;6128305;23;19912;-81
2023/03/03 05:52:25;;;;;;;;;;;3.80;1.00;;;;;;6257278;22;19913;-81
2023/03/03 05:54:51;;;;;;;;;;;3.70;1.00;;;;;;6229451;23;19905;-80
2023/03/03 05:57:16;;;;;;;;;;;3.70;1.00;;;;;;6253772;22;19905;-80
2023/03/03 05:59:42;;;;;;;;;;;3.70;1.00;;;;;;6126907;23;20044;-80
2023/03/03 06:02:07;;;;;;;;;;;3.70;1.00;;;;;;6125119;23;19906;-80
2023/03/03 06:04:33;;;;;;;;;;;3.70;1.00;;;;;;6126590;23;20254;-81
2023/03/03 06:06:58;;;;;;;;;;;3.70;1.00;;;;;;6255058;22;20238;-80
2023/03/03 06:09:25;;;;;;;;;;;3.80;1.00;;;;;;6126056;23;19916;-80
2023/03/03 06:11:52;;;;;;;;;;;3.70;1.00;;;;;;6226809;23;19962;-80
2023/03/03 06:14:21;;;;;;;;;;;3.70;1.00;;;;;;6227475;23;19905;-80
2023/03/03 06:16:47;;;;;;;;;;;3.70;1.00;;;;;;6228047;23;19905;-80
2023/03/03 06:19:12;;;;;;;;;;;3.80;1.00;;;;;;6126264;23;20317;-80
2023/03/03 06:21:38;;;;;;;;;;;3.80;1.00;;;;;;6125537;23;20518;-80
2023/03/03 06:24:04;;;;;;;;;;;3.80;1.00;;;;;;6125231;23;19905;-81
2023/03/03 06:26:30;;;;;;;;;;;3.80;99.90;;;;;;6125650;23;19905;-81
2023/03/03 06:28:55;;;;;;;;;;;3.80;1.00;;;;;;6124981;23;19954;-79
2023/03/03 06:31:21;;;;;;;;;;;3.80;1.00;;;;;;6124960;23;19905;-80
2023/03/03 06:33:46;;;;;;;;;;;3.90;99.90;;;;;;6253041;22;20396;-80
2023/03/03 06:36:12;;;;;;;;;;;3.90;99.90;;;;;;6124479;23;19996;-81
2023/03/03 06:38:37;;;;;;;;;;;3.90;99.90;;;;;;6125627;23;20266;-80
2023/03/03 06:41:06;;;;;;;;;;;3.90;99.90;;;;;;6125091;23;20034;-81
2023/03/03 06:43:32;;;;;;;;;;;3.90;99.90;;;;;;6124773;23;19905;-81
2023/03/03 06:45:57;;;;;;;;;;;4.00;99.90;;;;;;6122839;23;20283;-80
2023/03/03 06:48:23;;;;;;;;;;;3.90;99.90;;;;;;6122262;23;19916;-80
2023/03/03 06:50:48;;;;;;;;;;;3.90;99.90;;;;;;6123906;23;19963;-80
2023/03/03 06:53:14;;;;;;;;;;;3.90;99.90;;;;;;6123471;23;19932;-80
2023/03/03 06:55:43;;;;;;;;;;;3.90;99.90;;;;;;6224360;23;20338;-80
2023/03/03 06:58:18;;;;;;;;;;;3.90;99.90;;;;;;6122403;23;20354;-80
2023/03/03 07:00:46;;;;;;;;;;;4.00;99.90;;;;;;6225669;23;19979;-80
2023/03/03 07:03:15;;;;;;;;;;;4.00;99.90;;;;;;6123603;23;19905;-81
2023/03/03 07:05:41;;;;;;;;;;;4.00;99.90;;;;;;6124419;23;19945;-80
2023/03/03 07:08:12;;;;;;;;;;;4.00;99.90;;;;;;6259889;22;19912;-79
2023/03/03 07:10:38;;;;;;;;;;;4.10;99.90;;;;;;6130446;23;19913;-79
2023/03/03 07:13:23;;;;;;;;;;;4.10;99.90;;;;;;6127804;23;20290;-81
2023/03/03 07:15:50;;;;;;;;;;;4.20;99.90;;;;;;6123344;23;19905;-80
2023/03/03 07:18:31;;;;;;;;;;;4.20;99.90;;;;;;6122814;23;19905;-79
2023/03/03 07:20:58;;;;;;;;;;;4.20;99.90;;;;;;6224403;23;19909;-80
2023/03/03 07:23:25;;;;;;;;;;;4.30;99.90;;;;;;6122317;23;20353;-81
2023/03/03 07:25:51;;;;;;;;;;;4.30;99.90;;;;;;6224136;23;19984;-80
2023/03/03 07:28:34;;;;;;;;;;;4.30;99.90;;;;;;6224372;23;19909;-80
2023/03/03 07:31:00;;;;;;;;;;;4.30;99.90;;;;;;6253900;22;19955;-80
2023/03/03 07:33:27;;;;;;;;;;;4.30;99.90;;;;;;6228423;23;19909;-80
2023/03/03 07:35:54;;;;;;;;;;;4.30;99.90;;;;;;6224997;23;19909;-80
2023/03/03 07:38:33;;;;;;;;;;;4.40;64.00;;;;;;6122083;23;19984;-80
2023/03/03 07:41:00;;;;;;;;;;;4.40;17.10;;;;;;6124949;23;20353;-80
2023/03/03 07:43:42;;;;;;;;;;;4.40;1.00;;;;;;6126481;23;19913;-80
2023/03/03 07:46:13;;;;;;;;;;;4.40;52.50;;;;;;6124633;23;19928;-80
2023/03/03 07:48:42;;;;;;;;;;;4.50;1.00;;;;;;6228013;23;19905;-81
2023/03/03 07:51:14;;;;;;;;;;;4.50;1.00;;;;;;6122781;23;19976;-80
2023/03/03 07:53:40;;;;;;;;;;;4.50;1.00;;;;;;6122845;23;19913;-80
2023/03/03 07:56:35;;;;;;;;;;;4.60;1.00;;;;;;6226838;23;19953;-80
2023/03/03 07:59:04;;;;;;;;;;;4.60;1.00;;;;;;6131287;22;19905;-80
2023/03/03 08:01:30;;;;;;;;;;;4.70;1.00;;;;;;6124147;23;19905;-79
2023/03/03 08:03:56;;;;;;;;;;;4.70;1.00;;;;;;6226677;23;19943;-80
2023/03/03 08:06:31;;;;;;;;;;;4.70;1.00;;;;;;6223657;23;20249;-80
2023/03/03 08:09:09;;;;;;;;;;;4.70;1.00;;;;;;6223460;23;20385;-81
2023/03/03 08:11:36;;;;;;;;;;;4.70;99.90;;;;;;6122005;23;19906;-80
2023/03/03 08:14:08;;;;;;;;;;;4.70;99.90;;;;;;6224239;23;19916;-80
2023/03/03 08:16:35;;;;;;;;;;;4.80;99.90;;;;;;6223975;23;19904;-80
2023/03/03 08:19:01;;;;;;;;;;;4.90;91.30;;;;;;6121816;23;20429;-80
2023/03/03 08:21:27;;;;;;;;;;;4.90;1.00;;;;;;6121150;23;19980;-80
2023/03/03 08:23:53;;;;;;;;;;;4.90;99.90;;;;;;6121884;23;19915;-80
2023/03/03 08:26:18;;;;;;;;;;;5.00;99.90;;;;;;6122135;23;19905;-80
2023/03/03 08:28:44;;;;;;;;;;;5.00;99.90;;;;;;6123706;23;19940;-80
2023/03/03 08:31:11;;;;;;;;;;;5.10;99.90;;;;;;6130688;23;19932;-80
2023/03/03 08:33:36;;;;;;;;;;;5.00;87.30;;;;;;6130493;23;19995;-80
2023/03/03 08:36:01;;;;;;;;;;;5.10;99.90;;;;;;6127283;23;20243;-81
2023/03/03 08:38:27;;;;;;;;;;;5.20;1.00;;;;;;6126544;23;19936;-80
2023/03/03 08:40:52;;;;;;;;;;;5.20;1.00;;;;;;6123187;23;20012;-80
2023/03/03 08:43:20;;;;;;;;;;;5.20;99.90;;;;;;6124673;23;19905;-81
2023/03/03 08:45:47;;;;;;;;;;;5.30;99.90;;;;;;6127012;23;19912;-82
2023/03/03 08:48:13;;;;;;;;;;;5.30;92.40;;;;;;6126044;23;19908;-80
2023/03/03 08:50:38;;;;;;;;;;;5.40;99.90;;;;;;6126022;23;19920;-80
2023/03/03 08:53:05;;;;;;;;;;;5.30;1.00;;;;;;6125429;23;19916;-80
2023/03/03 08:55:31;;;;;;;;;;;5.40;1.00;;;;;;6126098;23;19905;-81
2023/03/03 08:57:56;;;;;;;;;;;5.40;1.00;;;;;;6226837;23;20219;-80
2023/03/03 09:00:22;;;;;;;;;;;5.40;1.00;;;;;;6125319;23;19905;-80
2023/03/03 09:02:49;;;;;;;;;;;5.50;1.00;;;;;;6224834;23;19912;-81
2023/03/03 09:05:15;;;;;;;;;;;5.50;1.00;;;;;;6124959;23;20306;-81
2023/03/03 09:07:40;;;;;;;;;;;5.50;99.90;;;;;;6124497;23;19905;-80
2023/03/03 09:10:06;;;;;;;;;;;5.50;99.90;;;;;;6124550;23;19913;-81
2023/03/03 09:12:34;;;;;;;;;;;5.50;99.90;;;;;;6124239;23;19956;-80
2023/03/03 09:15:01;;;;;;;;;;;5.60;88.10;;;;;;6123958;23;19979;-80
2023/03/03 09:17:34;;;;;;;;;;;5.60;20.00;;;;;;6124118;22;20500;-80
2023/03/03 09:20:10;;;;;;;;;;;5.70;99.90;;;;;;6123161;23;19958;-80
2023/03/03 09:22:36;;;;;;;;;;;5.80;1.00;;;;;;6123019;23;19936;-80
2023/03/03 09:25:13;;;;;;;;;;;5.80;1.00;;;;;;6123866;23;20224;-81
2023/03/03 09:27:39;;;;;;;;;;;5.90;1.00;;;;;;6124448;23;19983;-80
2023/03/03 09:30:25;;;;;;;;;;;6.00;1.00;;;;;;6124742;23;19909;-80
2023/03/03 09:32:51;;;;;;;;;;;6.10;99.90;;;;;;6225006;23;20283;-80
2023/03/03 09:35:35;;;;;;;;;;;6.10;99.90;;;;;;6123943;23;19951;-80
2023/03/03 09:38:01;;;;;;;;;;;6.20;99.90;;;;;;6123569;23;19912;-80
2023/03/03 09:40:46;;;;;;;;;;;6.30;99.90;;;;;;6126468;23;19912;-80
2023/03/03 09:43:22;;;;;;;;;;;6.10;99.90;;;;;;6128983;23;19911;-80
2023/03/03 09:45:48;;;;;;;;;;;6.10;99.90;;;;;;6126684;23;19906;-80
2023/03/03 09:48:30;;;;;;;;;;;6.20;99.90;;;;;;6228384;23;20350;-80
2023/03/03 09:50:56;;;;;;;;;;;6.10;99.90;;;;;;6124271;23;19905;-81
2023/03/03 09:53:21;;;;;;;;;;;6.20;99.90;;;;;;6226349;23;19936;-80
2023/03/03 09:55:53;;;;;;;;;;;6.30;96.30;;;;;;6125492;23;19909;-81
2023/03/03 09:58:18;;;;;;;;;;;6.30;17.20;;;;;;6124059;23;19912;-80
2023/03/03 10:00:56;;;;;;;;;;;6.30;1.00;;;;;;6227218;23;19905;-80
2023/03/03 10:03:21;;;;;;;;;;;6.40;1.00;;;;;;6226105;23;19909;-80
2023/03/03 10:05:54;;;;;;;;;;;6.40;1.00;;;;;;6125076;23;19975;-80
2023/03/03 10:08:23;;;;;;;;;;;6.40;1.00;;;;;;6124718;23;19985;-80
2023/03/03 10:10:54;;;;;;;;;;;6.40;1.00;;;;;;6124740;23;19912;-81
2023/03/03 10:13:25;;;;;;;;;;;6.50;1.00;;;;;;6124800;23;19909;-81
2023/03/03 10:16:06;;;;;;;;;;;6.20;1.00;;;;;;6226182;23;20023;-80
2023/03/03 10:18:41;;;;;;;;;;;6.00;1.00;;;;;;6121613;23;19905;-81
2023/03/03 10:21:09;;;;;;;;;;;6.20;24.50;;;;;;6250435;22;19905;-80
2023/03/03 10:23:54;;;;;;;;;;;6.30;1.00;;;;;;6226274;23;19905;-80
2023/03/03 10:26:34;;;;;;;;;;;6.20;1.00;;;;;;6122998;23;19905;-80
2023/03/03 10:29:02;;;;;;;;;;;6.10;1.00;;;;;;6119372;23;19912;-79
2023/03/03 10:31:46;;;;;;;;;;;6.20;1.00;;;;;;6122919;23;19905;-79
2023/03/03 10:34:30;;;;;;;;;;;6.20;1.00;;;;;;6225042;23;19992;-79
2023/03/03 10:37:14;;;;;;;;;;;6.40;1.00;;;;;;6223771;23;19905;-79
2023/03/03 10:39:47;;;;;;;;;;;6.50;1.00;;;;;;6122846;23;19905;-79
2023/03/03 10:42:24;;;;;;;;;;;6.30;1.00;;;;;;6120370;23;20220;-79
2023/03/03 10:44:56;;;;;;;;;;;6.30;1.00;;;;;;6121985;23;19905;-79
2023/03/03 10:47:24;;;;;;;;;;;6.40;1.00;;;;;;6124612;23;19905;-79
2023/03/03 10:49:58;;;;;;;;;;;6.40;1.00;;;;;;6226894;23;19908;-79
2023/03/03 10:52:30;;;;;;;;;;;6.50;1.00;;;;;;6122149;23;20266;-79
2023/03/03 10:55:20;;;;;;;;;;;6.80;1.00;;;;;;6121899;23;20353;-79
2023/03/03 10:58:00;;;;;;;;;;;6.90;1.00;;;;;;6224140;23;19944;-78
2023/03/03 11:00:30;;;;;;;;;;;7.00;99.90;;;;;;6225446;23;19905;-80
2023/03/03 11:03:19;;;;;;;;;;;6.90;99.90;;;;;;6133406;23;19916;-81
2023/03/03 11:05:45;;;;;;;;;;;6.90;99.90;;;;;;6142675;22;19909;-80
2023/03/03 11:08:10;;;;;;;;;;;6.90;99.90;;;;;;6229974;23;19959;-80
2023/03/03 11:10:36;;;;;;;;;;;7.10;99.90;;;;;;6227196;23;20293;-80
2023/03/03 11:13:18;;;;;;;;;;;6.80;99.90;;;;;;6125936;23;20303;-80
2023/03/03 11:15:50;;;;;;;;;;;6.80;99.90;;;;;;6124721;23;19905;-82
2023/03/03 11:18:30;;;;;;;;;;;6.70;99.90;;;;;;6125079;23;20249;-82
2023/03/03 11:21:11;;;;;;;;;;;6.70;99.90;;;;;;6124916;23;20223;-82
2023/03/03 11:24:12;;;;;;;;;;;6.50;99.90;;;;;;6122406;23;20393;-82
2023/03/03 11:26:55;;;;;;;;;;;6.40;99.90;;;;;;6129977;23;19987;-83
2023/03/03 11:29:35;;;;;;;;;;;6.40;99.90;;;;;;6243952;22;19985;-82
2023/03/03 11:32:10;;;;;;;;;;;6.30;99.90;;;;;;6124759;23;20326;-82
2023/03/03 11:34:35;;;;;;;;;;;6.20;99.90;;;;;;6122044;23;20208;-83
2023/03/03 11:37:04;;;;;;;;;;;6.30;99.90;;;;;;6223796;23;19996;-82
2023/03/03 11:39:29;;;;;;;;;;;6.20;99.90;;;;;;6224081;23;19905;-82
2023/03/03 11:42:02;;;;;;;;;;;6.40;1.00;;;;;;6121824;23;20313;-83
2023/03/03 11:44:34;;;;;;;;;;;6.60;1.00;;;;;;6228457;23;20334;-83
2023/03/03 11:47:03;;;;;;;;;;;6.80;99.90;;;;;;6126654;23;19906;-83
2023/03/03 11:49:32;;;;;;;;;;;7.00;99.90;;;;;;6125758;23;19996;-83
2023/03/03 11:52:16;;;;;;;;;;;7.10;99.90;;;;;;6231149;23;19987;-83
2023/03/03 11:55:01;;;;;;;;;;;7.20;99.90;;;;;;6226516;23;19909;-82
2023/03/03 11:57:26;;;;;;;;;;;7.50;99.90;;;;;;6122661;23;19905;-83
2023/03/03 11:59:51;;;;;;;;;;;7.60;99.90;;;;;;6223921;23;20005;-82
2023/03/03 12:02:35;;;;;;;;;;;7.80;99.90;;;;;;6122253;23;19912;-83
2023/03/03 12:05:07;;;;;;;;;;;7.90;57.90;;;;;;6225569;23;19905;-83
2023/03/03 12:07:44;;;;;;;;;;;8.00;27.80;;;;;;6122601;23;20345;-83
2023/03/03 12:10:17;;;;;;;;;;;8.10;1.00;;;;;;6227546;23;19988;-83
2023/03/03 12:12:47;;;;;;;;;;;7.90;1.00;;;;;;6252282;22;19909;-83
2023/03/03 12:15:14;;;;;;;;;;;7.60;1.00;;;;;;6125337;23;19953;-82
2023/03/03 12:17:58;;;;;;;;;;;7.50;1.00;;;;;;6137230;23;19912;-80
2023/03/03 12:20:42;;;;;;;;;;;7.40;1.00;;;;;;6127776;23;19909;-81
2023/03/03 12:23:18;;;;;;;;;;;7.30;1.00;;;;;;6126715;23;19909;-81
2023/03/03 12:25:44;;;;;;;;;;;7.40;35.60;;;;;;6127099;23;19909;-81
2023/03/03 12:28:24;;;;;;;;;;;7.50;2.10;;;;;;6127828;23;19911;-81
2023/03/03 12:31:14;;;;;;;;;;;7.50;1.00;;;;;;6127195;23;19911;-81
2023/03/03 12:34:03;;;;;;;;;;;7.40;1.00;;;;;;6126832;23;19909;-82
2023/03/03 12:36:46;;;;;;;;;;;7.10;1.00;;;;;;6128404;23;19905;-81
2023/03/03 12:39:24;;;;;;;;;;;7.30;1.00;;;;;;6126874;23;20013;-81
2023/03/03 12:42:09;;;;;;;;;;;7.40;1.00;;;;;;6226665;23;20279;-81
2023/03/03 12:44:40;;;;;;;;;;;7.50;1.00;;;;;;6227199;23;19982;-81
2023/03/03 12:47:19;;;;;;;;;;;7.50;1.00;;;;;;6127046;23;19927;-81
2023/03/03 12:50:08;;;;;;;;;;;7.50;1.00;;;;;;6226344;23;20285;-81
2023/03/03 12:52:52;;;;;;;;;;;7.30;1.00;;;;;;6129926;23;20254;-81
2023/03/03 12:55:43;;;;;;;;;;;7.50;1.00;;;;;;6124954;23;19905;-81
2023/03/03 12:58:11;;;;;;;;;;;7.40;1.00;;;;;;6125661;23;19905;-82
2023/03/03 13:00:46;;;;;;;;;;;7.50;1.00;;;;;;6124408;23;20361;-81
2023/03/03 13:03:18;;;;;;;;;;;7.60;1.00;;;;;;6122603;23;19950;-81
2023/03/03 13:05:48;;;;;;;;;;;7.60;1.00;;;;;;6124068;23;19955;-81
2023/03/03 13:08:32;;;;;;;;;;;7.70;1.00;;;;;;6125322;23;19912;-81
2023/03/03 13:11:00;;;;;;;;;;;7.80;1.00;;;;;;6226544;23;19913;-81
2023/03/03 13:13:49;;;;;;;;;;;8.00;1.00;;;;;;6125095;23;20281;-81
2023/03/03 13:16:20;;;;;;;;;;;8.20;1.00;;;;;;6226323;23;19984;-81
2023/03/03 13:19:05;;;;;;;;;;;8.20;1.00;;;;;;6251986;22;19955;-81
2023/03/03 13:21:35;;;;;;;;;;;8.00;1.00;;;;;;6226571;23;19911;-81
2023/03/03 13:24:09;;;;;;;;;;;8.20;1.00;;;;;;6124829;23;19944;-81
2023/03/03 13:26:36;;;;;;;;;;;8.10;1.00;;;;;;6125754;23;19905;-81
2023/03/03 13:29:07;;;;;;;;;;;8.00;1.00;;;;;;6230710;23;19912;-82
2023/03/03 13:31:38;;;;;;;;;;;8.10;1.00;;;;;;6127282;23;19924;-81
2023/03/03 13:34:04;;;;;;;;;;;8.30;1.00;;;;;;6124426;23;19909;-81
2023/03/03 13:36:42;;;;;;;;;;;8.40;1.00;;;;;;6119666;23;19905;-80
2023/03/03 13:39:19;;;;;;;;;;;8.40;1.00;;;;;;6125903;23;19909;-81
2023/03/03 13:41:47;;;;;;;;;;;8.40;1.00;;;;;;6137917;23;20262;-80
2023/03/03 13:44:24;;;;;;;;;;;8.50;1.00;;;;;;6134191;23;19916;-80
2023/03/03 13:47:08;;;;;;;;;;;8.50;1.00;;;;;;6125889;23;19939;-81
2023/03/03 13:49:57;;;;;;;;;;;8.30;1.00;;;;;;6126784;23;19909;-82
2023/03/03 13:52:25;;;;;;;;;;;8.20;1.00;;;;;;6226871;23;19913;-81
2023/03/03 13:55:09;;;;;;;;;;;8.40;1.00;;;;;;6253938;22;19905;-81
2023/03/03 13:57:43;;;;;;;;;;;8.50;1.00;;;;;;6228874;23;20298;-80
2023/03/03 14:00:19;;;;;;;;;;;8.30;1.00;;;;;;6121462;23;19909;-83
2023/03/03 14:03:04;;;;;;;;;;;8.30;1.00;;;;;;6121880;23;19919;-79
2023/03/03 14:05:32;;;;;;;;;;;8.50;1.00;;;;;;6226009;23;19905;-80
2023/03/03 14:07:57;;;;;;;;;;;9.00;1.00;;;;;;6123969;23;19905;-80
2023/03/03 14:10:25;;;;;;;;;;;9.30;1.00;;;;;;6124004;23;19957;-79
2023/03/03 14:13:01;;;;;;;;;;;9.30;1.00;;;;;;6123527;23;19970;-79
2023/03/03 14:15:46;;;;;;;;;;;9.60;1.00;;;;;;6122586;23;19905;-79
2023/03/03 14:18:31;;;;;;;;;;;9.60;1.00;;;;;;6121595;23;19909;-79
2023/03/03 14:21:03;;;;;;;;;;;9.60;1.00;;;;;;6123428;23;19912;-80
2023/03/03 14:23:47;;;;;;;;;;;9.20;1.00;;;;;;6227510;23;20387;-79
2023/03/03 14:26:13;;;;;;;;;;;9.00;1.00;;;;;;6227054;23;19905;-79
2023/03/03 14:28:47;;;;;;;;;;;9.00;1.00;;;;;;6124409;23;20050;-79
2023/03/03 14:31:17;;;;;;;;;;;9.00;1.00;;;;;;6122810;23;19913;-79
2023/03/03 14:33:56;;;;;;;;;;;9.20;1.00;;;;;;6123583;23;19912;-79
2023/03/03 14:36:27;;;;;;;;;;;9.40;1.00;;;;;;6225081;23;19909;-79
2023/03/03 14:38:52;;;;;;;;;;;9.30;1.00;;;;;;6123540;23;19913;-81
2023/03/03 14:41:20;;;;;;;;;;;9.20;1.00;;;;;;6120903;23;19909;-79
2023/03/03 14:43:59;;;;;;;;;;;9.10;1.00;;;;;;6123360;23;19980;-79
2023/03/03 14:46:35;;;;;;;;;;;8.90;1.00;;;;;;6124330;23;20025;-80
2023/03/03 14:49:29;;;;;;;;;;;8.80;1.00;;;;;;6123579;23;19905;-80
2023/03/03 14:52:00;;;;;;;;;;;9.00;1.00;;;;;;6122834;23;19905;-79
2023/03/03 14:54:27;;;;;;;;;;;9.20;1.00;;;;;;6251531;22;19987;-82
2023/03/03 14:57:11;;;;;;;;;;;9.40;1.00;;;;;;6226168;23;19931;-81
2023/03/03 14:59:38;;;;;;;;;;;9.50;1.00;;;;;;6124378;23;19905;-81
2023/03/03 15:02:15;;;;;;;;;;;9.20;1.00;;;;;;6236049;23;19905;-80
2023/03/03 15:04:41;;;;;;;;;;;9.10;1.00;;;;;;6126602;23;19905;-79
2023/03/03 15:07:19;;;;;;;;;;;8.80;1.00;;;;;;6123231;23;19995;-80